Terminal Aerodrome Forecast
Issued by NWS Goodland, KS

Home | Current Version | Previous Version | Text Only | Print | Product List | Glossary On
Versions: 1 2 3 4 5 6 7 8 9 10 11 12 13 14 15 16
000
FTUS43 KGLD 242320
TAFGLD
TAF
KGLD 242320Z 2500/2524 33010G18KT P6SM -SHRA FEW030 BKN070
     FM250600 32010KT P6SM SCT200
     FM251200 24012KT P6SM SCT200
     FM252100 29010G20KT P6SM SCT030 BKN050=

USA.gov is the U.S. government's official web portal to all federal, state and local government web resources and services.